Time;durP1;ratioP1;P1;durP2;ratioP2;P2;SDS_P1;SDS_P2;PMS_P1;PMS_P2;Temp;Humidity;BMP_temperature;BMP_pressure;BME280_temperature;BME280_humidity;BME280_pressure;Samples;Min_cycle;Max_cycle;Signal;HPM_P1;HPM_P2
2023/06/23 00:00:30;;;;;;;;;;;;;;;;;;;;;
2023/06/23 00:03:30;;;;;;;;;;;22.70;93.20;;;;;;6096262;23;19936;-96
2023/06/23 00:06:18;;;;;;;;;;;22.70;93.30;;;;;;6102228;23;20012;-95
2023/06/23 00:09:17;;;;;;;;;;;22.70;93.60;;;;;;6102188;23;19905;-96
2023/06/23 00:12:24;;;;;;;;;;;22.70;93.20;;;;;;6098205;23;19952;-96
2023/06/23 00:15:22;;;;;;;;;;;22.70;93.20;;;;;;6100352;23;19909;-96
2023/06/23 00:18:10;;;;;;;;;;;22.70;93.20;;;;;;6100655;23;19905;-96
2023/06/23 00:21:05;;;;;;;;;;;22.60;93.10;;;;;;6102029;23;19912;-96
2023/06/23 00:24:13;;;;;;;;;;;22.60;93.10;;;;;;6099333;23;19905;-96
2023/06/23 00:27:22;;;;;;;;;;;22.60;93.10;;;;;;6076948;23;19910;-95
2023/06/23 00:30:31;;;;;;;;;;;22.60;93.00;;;;;;6098055;23;19992;-96
2023/06/23 00:33:43;;;;;;;;;;;22.60;93.10;;;;;;6103898;23;19932;-96
2023/06/23 00:36:40;;;;;;;;;;;22.60;93.00;;;;;;6016354;23;19906;-96
2023/06/23 00:39:27;;;;;;;;;;;22.60;93.10;;;;;;6015032;23;20005;-96
2023/06/23 00:42:16;;;;;;;;;;;22.50;93.00;;;;;;6015775;23;20386;-96
2023/06/23 00:45:19;;;;;;;;;;;22.60;92.90;;;;;;6038134;23;19918;-96
2023/06/23 00:47:52;;;;;;;;;;;22.60;93.00;;;;;;6038751;23;19910;-94
2023/06/23 00:53:58;;;;;;;;;;;22.70;92.90;;;;;;5984095;24;19913;-96
2023/06/23 00:57:08;;;;;;;;;;;;;;;;;;;;;
2023/06/23 01:06:43;;;;;;;;;;;22.50;92.90;;;;;;5930851;24;19986;-96
2023/06/23 01:09:39;;;;;;;;;;;22.50;92.90;;;;;;5929083;24;19943;-96
2023/06/23 01:12:27;;;;;;;;;;;22.50;92.90;;;;;;5910262;24;20345;-95
2023/06/23 01:16:04;;;;;;;;;;;22.50;92.90;;;;;;5957555;24;19982;-96
2023/06/23 01:19:03;;;;;;;;;;;22.50;92.80;;;;;;5879719;24;19907;-96
2023/06/23 01:21:55;;;;;;;;;;;22.50;92.90;;;;;;5883904;24;19907;-96
2023/06/23 01:24:33;;;;;;;;;;;22.50;92.90;;;;;;5898847;24;19951;-95
2023/06/23 01:27:25;;;;;;;;;;;22.40;92.90;;;;;;5899407;24;20009;-94
2023/06/23 01:30:20;;;;;;;;;;;22.50;92.70;;;;;;5909258;24;19907;-96
2023/06/23 01:33:39;;;;;;;;;;;;;;;;;;;;;
2023/06/23 01:36:47;;;;;;;;;;;;;;;;;;;;;
2023/06/23 01:39:48;;;;;;;;;;;22.40;92.80;;;;;;5958223;23;19906;-96
2023/06/23 01:42:37;;;;;;;;;;;22.40;92.60;;;;;;6040561;23;19910;-96
2023/06/23 01:45:28;;;;;;;;;;;22.40;92.70;;;;;;6037748;23;20768;-95
2023/06/23 01:48:17;;;;;;;;;;;22.40;92.60;;;;;;6039037;23;19934;-96
2023/06/23 01:51:03;;;;;;;;;;;22.40;92.60;;;;;;6013475;23;19941;-96
2023/06/23 01:53:55;;;;;;;;;;;22.40;92.80;;;;;;6014561;23;19906;-96
2023/06/23 01:56:45;;;;;;;;;;;22.50;92.70;;;;;;6039931;23;20352;-96
2023/06/23 01:59:53;;;;;;;;;;;22.40;92.70;;;;;;6013768;23;19916;-96
2023/06/23 02:02:39;;;;;;;;;;;22.40;92.60;;;;;;6016024;23;19906;-96
2023/06/23 02:05:51;;;;;;;;;;;22.40;92.40;;;;;;6044146;23;19906;-96
2023/06/23 02:08:39;;;;;;;;;;;22.40;92.80;;;;;;6044479;23;19898;-95
2023/06/23 02:14:49;;;;;;;;;;;22.30;92.60;;;;;;5974628;23;19917;-96
2023/06/23 02:17:28;;;;;;;;;;;22.40;92.60;;;;;;6041121;23;20271;-96
2023/06/23 02:19:55;;;;;;;;;;;22.30;92.50;;;;;;6018461;23;19910;-94
2023/06/23 02:22:23;;;;;;;;;;;22.30;92.50;;;;;;6016667;23;19913;-96
2023/06/23 02:24:50;;;;;;;;;;;22.30;92.40;;;;;;6016373;23;19906;-93
2023/06/23 02:27:38;;;;;;;;;;;22.30;92.40;;;;;;5994637;23;19918;-96
2023/06/23 02:30:31;;;;;;;;;;;22.30;92.50;;;;;;6043747;23;19914;-96
2023/06/23 02:33:24;;;;;;;;;;;22.30;92.40;;;;;;6040887;23;20403;-95
2023/06/23 02:35:58;;;;;;;;;;;22.30;92.30;;;;;;5990375;23;19941;-95
2023/06/23 02:46:45;;;;;;;;;;;22.20;92.40;;;;;;6142300;23;20275;-96
2023/06/23 02:49:59;;;;;;;;;;;22.20;92.30;;;;;;6071746;23;19917;-96
2023/06/23 02:55:42;;;;;;;;;;;22.30;92.60;;;;;;6054710;23;19922;-96
2023/06/23 02:58:11;;;;;;;;;;;22.30;92.60;;;;;;6025726;23;19906;-96
2023/06/23 03:00:42;;;;;;;;;;;22.20;92.30;;;;;;6049101;23;20259;-96
2023/06/23 03:03:15;;;;;;;;;;;22.20;92.20;;;;;;6020835;23;19965;-96
2023/06/23 03:05:47;;;;;;;;;;;22.20;92.40;;;;;;6021157;23;19906;-96
2023/06/23 03:08:13;;;;;;;;;;;22.20;92.30;;;;;;6021171;23;19946;-96
2023/06/23 03:10:39;;;;;;;;;;;22.20;92.30;;;;;;6021552;23;20061;-95
2023/06/23 03:13:05;;;;;;;;;;;22.20;92.40;;;;;;6014146;23;19922;-95
2023/06/23 03:15:30;;;;;;;;;;;22.20;92.30;;;;;;6013873;23;19938;-93
2023/06/23 03:17:58;;;;;;;;;;;22.20;92.30;;;;;;6013810;23;19937;-93
2023/06/23 03:20:36;;;;;;;;;;;22.20;92.20;;;;;;6013554;23;19906;-93
2023/06/23 03:23:07;;;;;;;;;;;22.20;92.40;;;;;;6013206;23;19992;-94
2023/06/23 03:25:32;;;;;;;;;;;22.20;92.20;;;;;;6098208;23;20373;-92
2023/06/23 03:28:01;;;;;;;;;;;22.20;92.40;;;;;;6154256;23;19905;-93
2023/06/23 03:30:41;;;;;;;;;;;22.20;92.40;;;;;;6153563;23;19912;-93
2023/06/23 03:33:13;;;;;;;;;;;22.20;92.40;;;;;;6153467;23;19912;-94
2023/06/23 03:35:44;;;;;;;;;;;22.20;92.30;;;;;;6154913;23;20274;-93
2023/06/23 03:38:14;;;;;;;;;;;22.20;92.40;;;;;;6155570;23;19940;-92
2023/06/23 03:40:43;;;;;;;;;;;22.20;92.30;;;;;;6154347;23;19932;-94
2023/06/23 03:43:13;;;;;;;;;;;22.10;92.10;;;;;;6130093;23;19984;-94
2023/06/23 03:45:41;;;;;;;;;;;22.10;92.10;;;;;;6129597;23;20290;-93
2023/06/23 03:48:09;;;;;;;;;;;22.10;92.10;;;;;;6154735;23;19905;-93
2023/06/23 03:50:36;;;;;;;;;;;22.10;92.30;;;;;;6129482;23;20003;-93
2023/06/23 03:53:10;;;;;;;;;;;22.10;92.20;;;;;;6155627;23;19915;-96
2023/06/23 03:55:59;;;;;;;;;;;22.10;92.20;;;;;;6132209;23;20397;-95
2023/06/23 03:58:44;;;;;;;;;;;22.10;92.10;;;;;;6155726;23;19908;-94
2023/06/23 04:01:19;;;;;;;;;;;22.10;92.30;;;;;;6156636;23;19905;-94
2023/06/23 04:04:05;;;;;;;;;;;22.10;92.50;;;;;;6129912;23;19939;-95
2023/06/23 04:07:00;;;;;;;;;;;22.10;92.20;;;;;;6156531;23;19904;-95
2023/06/23 04:09:46;;;;;;;;;;;22.10;92.00;;;;;;6156175;23;19988;-95
2023/06/23 04:12:32;;;;;;;;;;;22.10;92.10;;;;;;6153473;23;20242;-95
2023/06/23 04:15:18;;;;;;;;;;;22.10;92.00;;;;;;6154536;23;19908;-96
2023/06/23 04:18:16;;;;;;;;;;;22.10;92.30;;;;;;6157069;23;19936;-96
2023/06/23 04:21:09;;;;;;;;;;;22.10;92.10;;;;;;6157192;23;19956;-95
2023/06/23 04:23:36;;;;;;;;;;;22.10;92.10;;;;;;6154895;23;20682;-96
2023/06/23 04:26:11;;;;;;;;;;;22.10;92.20;;;;;;6155878;23;19983;-96
2023/06/23 04:29:03;;;;;;;;;;;22.10;92.10;;;;;;6159311;23;20374;-96
2023/06/23 04:31:50;;;;;;;;;;;22.10;92.10;;;;;;6158023;23;19919;-96
2023/06/23 04:34:42;;;;;;;;;;;22.10;92.00;;;;;;6157478;23;19974;-96
2023/06/23 04:37:33;;;;;;;;;;;22.10;92.10;;;;;;6161679;23;19904;-96
2023/06/23 04:40:29;;;;;;;;;;;22.00;92.10;;;;;;6163485;23;19905;-96
2023/06/23 04:43:32;;;;;;;;;;;22.10;92.00;;;;;;6166096;23;19912;-96
2023/06/23 04:46:55;;;;;;;;;;;;;;;;;;;;;
2023/06/23 04:49:59;;;;;;;;;;;22.00;92.10;;;;;;6135365;23;19913;-96
2023/06/23 05:35:21;;;;;;;;;;;22.00;91.90;;;;;;6140003;23;19920;-96
2023/06/23 05:47:57;;;;;;;;;;;22.00;91.90;;;;;;6045632;23;19917;-96
2023/06/23 05:51:03;;;;;;;;;;;22.00;91.80;;;;;;6029180;23;19918;-96
2023/06/23 05:53:31;;;;;;;;;;;22.00;91.90;;;;;;6029566;23;19949;-96
2023/06/23 05:56:38;;;;;;;;;;;22.00;91.90;;;;;;6023980;23;19958;-96
2023/06/23 05:59:19;;;;;;;;;;;21.90;91.90;;;;;;5966205;24;19938;-96
2023/06/23 06:08:29;;;;;;;;;;;21.90;91.90;;;;;;5959819;24;19895;-96
2023/06/23 06:11:26;;;;;;;;;;;21.90;91.90;;;;;;5960931;24;19967;-96
2023/06/23 06:14:43;;;;;;;;;;;21.90;91.70;;;;;;5959001;24;19907;-96
2023/06/23 06:17:15;;;;;;;;;;;21.90;92.00;;;;;;5956550;24;19922;-96
2023/06/23 06:20:11;;;;;;;;;;;21.80;91.90;;;;;;5943262;24;20373;-96
2023/06/23 06:26:09;;;;;;;;;;;21.90;91.90;;;;;;6051620;23;19925;-96
2023/06/23 06:32:37;;;;;;;;;;;21.90;92.00;;;;;;5973587;23;19921;-96
2023/06/23 06:38:35;;;;;;;;;;;22.00;92.10;;;;;;6027486;23;19918;-96
2023/06/23 06:45:07;;;;;;;;;;;21.80;92.10;;;;;;5961344;24;19911;-95
2023/06/23 07:01:14;;;;;;;;;;;;;;;;;;;;;
2023/06/23 07:04:10;;;;;;;;;;;22.00;92.10;;;;;;5833124;24;20248;-95
2023/06/23 07:07:05;;;;;;;;;;;22.00;92.10;;;;;;5758734;24;19916;-95
2023/06/23 07:34:40;;;;;;;;;;;;;;;;;;;;;
2023/06/23 07:53:47;;;;;;;;;;;22.30;91.70;;;;;;5830801;24;19972;-96
2023/06/23 08:08:56;;;;;;;;;;;22.30;91.50;;;;;;5797665;24;19913;-96
2023/06/23 08:15:47;;;;;;;;;;;;;;;;;;;;;
2023/06/23 08:22:14;;;;;;;;;;;22.40;91.50;;;;;;5855431;24;20033;-96
2023/06/23 08:25:18;;;;;;;;;;;22.40;91.40;;;;;;5857475;24;19917;-96
2023/06/23 08:27:55;;;;;;;;;;;22.50;91.40;;;;;;5881952;24;20401;-96
2023/06/23 08:31:00;;;;;;;;;;;22.50;91.30;;;;;;5897865;24;19924;-96
2023/06/23 08:33:48;;;;;;;;;;;22.50;91.30;;;;;;5880044;24;19914;-95
2023/06/23 08:36:41;;;;;;;;;;;22.50;91.20;;;;;;5910203;24;19912;-96
2023/06/23 08:42:12;;;;;;;;;;;22.50;91.20;;;;;;5862406;24;20409;-94
2023/06/23 08:45:26;;;;;;;;;;;22.60;91.20;;;;;;5829539;24;19916;-96
2023/06/23 08:48:51;;;;;;;;;;;;;;;;;;;;;
2023/06/23 08:58:42;;;;;;;;;;;22.60;91.00;;;;;;5940879;24;19914;-95
2023/06/23 09:04:54;;;;;;;;;;;22.60;90.90;;;;;;5880431;24;20255;-96
2023/06/23 09:13:16;;;;;;;;;;;22.60;90.80;;;;;;6109874;23;19927;-94
2023/06/23 09:16:19;;;;;;;;;;;;;;;;;;;;;
2023/06/23 09:19:15;;;;;;;;;;;22.60;90.80;;;;;;5968132;24;19911;-95
2023/06/23 09:26:02;;;;;;;;;;;;;;;;;;;;;
2023/06/23 09:29:01;;;;;;;;;;;22.60;90.70;;;;;;5978347;24;19914;-96
2023/06/23 09:31:48;;;;;;;;;;;22.60;90.60;;;;;;5961080;24;19910;-94
2023/06/23 09:34:29;;;;;;;;;;;22.60;90.50;;;;;;5961413;24;19936;-96
2023/06/23 09:37:48;;;;;;;;;;;22.60;90.70;;;;;;5968255;24;19956;-96
2023/06/23 09:48:42;;;;;;;;;;;22.60;90.60;;;;;;6131478;23;19925;-95
2023/06/23 09:54:39;;;;;;;;;;;22.60;90.50;;;;;;5985651;24;19935;-94
2023/06/23 09:57:38;;;;;;;;;;;22.60;90.50;;;;;;5958583;24;19907;-96
2023/06/23 10:00:35;;;;;;;;;;;22.60;90.50;;;;;;5983402;24;19910;-95
2023/06/23 10:03:41;;;;;;;;;;;22.60;90.40;;;;;;5959014;24;19907;-95
2023/06/23 10:06:49;;;;;;;;;;;22.60;90.40;;;;;;5957000;24;20128;-96
2023/06/23 10:09:54;;;;;;;;;;;22.60;90.40;;;;;;5958268;24;19931;-96
2023/06/23 10:24:27;;;;;;;;;;;;;;;;;;;;;
2023/06/23 10:27:03;;;;;;;;;;;22.50;90.30;;;;;;6127606;23;19929;-96
2023/06/23 10:44:12;;;;;;;;;;;22.50;90.60;;;;;;6118817;23;19925;-96
2023/06/23 10:47:07;;;;;;;;;;;22.60;90.60;;;;;;6106791;23;19909;-96
2023/06/23 10:49:45;;;;;;;;;;;22.50;90.50;;;;;;6109441;23;19905;-96
2023/06/23 12:00:36;;;;;;;;;;;22.40;90.70;;;;;;6111225;23;20230;-96
2023/06/23 13:15:31;;;;;;;;;;;22.30;90.50;;;;;;6104192;23;19921;-95
2023/06/23 13:18:27;;;;;;;;;;;22.30;89.50;;;;;;6080804;23;19933;-96
2023/06/23 13:46:50;;;;;;;;;;;22.30;89.80;;;;;;6131126;23;19925;-89
2023/06/23 13:49:15;;;;;;;;;;;22.30;88.10;;;;;;6151893;23;19908;-92
2023/06/23 13:51:41;;;;;;;;;;;22.30;87.40;;;;;;6151982;23;19912;-92
2023/06/23 13:54:07;;;;;;;;;;;22.30;85.60;;;;;;6152292;23;19931;-90
2023/06/23 13:56:33;;;;;;;;;;;22.30;86.20;;;;;;6152297;23;19986;-91
2023/06/23 13:58:59;;;;;;;;;;;22.30;83.60;;;;;;6152686;23;19913;-91
2023/06/23 14:01:24;;;;;;;;;;;22.20;82.80;;;;;;6152129;23;19936;-93
2023/06/23 14:03:51;;;;;;;;;;;22.20;82.60;;;;;;6152441;23;19947;-93
2023/06/23 14:06:20;;;;;;;;;;;22.20;81.80;;;;;;6152744;23;19904;-93
2023/06/23 14:08:46;;;;;;;;;;;22.20;82.30;;;;;;6152340;23;19936;-92
2023/06/23 14:11:12;;;;;;;;;;;22.20;81.40;;;;;;6152116;23;19919;-91
2023/06/23 14:13:37;;;;;;;;;;;22.20;80.00;;;;;;6154826;23;19927;-90
2023/06/23 14:16:05;;;;;;;;;;;22.10;79.60;;;;;;6151207;23;20345;-90
2023/06/23 14:18:31;;;;;;;;;;;22.20;79.90;;;;;;6150647;23;19912;-90
2023/06/23 14:20:56;;;;;;;;;;;22.10;78.30;;;;;;6153019;23;19904;-90
2023/06/23 14:23:23;;;;;;;;;;;22.10;78.40;;;;;;6152964;23;19987;-89
2023/06/23 14:25:48;;;;;;;;;;;22.10;78.50;;;;;;6153410;23;19909;-90
2023/06/23 14:28:14;;;;;;;;;;;22.10;78.10;;;;;;6153608;23;19943;-88
2023/06/23 14:30:40;;;;;;;;;;;22.10;78.30;;;;;;6153867;23;19912;-89
2023/06/23 14:33:06;;;;;;;;;;;22.10;78.50;;;;;;6152964;23;19940;-90
2023/06/23 14:35:32;;;;;;;;;;;22.10;78.70;;;;;;6153783;23;19959;-90
2023/06/23 14:37:57;;;;;;;;;;;22.10;78.60;;;;;;6153313;23;19979;-90
2023/06/23 14:40:23;;;;;;;;;;;22.10;79.10;;;;;;6153492;23;19909;-91
2023/06/23 14:42:50;;;;;;;;;;;22.10;78.90;;;;;;6153794;23;19909;-91
2023/06/23 14:45:15;;;;;;;;;;;22.10;78.00;;;;;;6155496;23;19912;-93
2023/06/23 14:47:41;;;;;;;;;;;22.10;77.50;;;;;;6152286;23;20234;-93
2023/06/23 14:50:10;;;;;;;;;;;22.20;78.20;;;;;;6153711;23;20235;-92
2023/06/23 14:52:36;;;;;;;;;;;22.10;76.80;;;;;;6153936;23;19951;-92
2023/06/23 14:55:01;;;;;;;;;;;22.10;77.90;;;;;;6154443;23;19905;-92
2023/06/23 14:57:27;;;;;;;;;;;22.10;77.60;;;;;;6153251;23;20341;-93
2023/06/23 14:59:53;;;;;;;;;;;22.10;77.40;;;;;;6155116;23;19904;-94
2023/06/23 15:02:19;;;;;;;;;;;22.10;76.10;;;;;;6156661;23;19915;-91
2023/06/23 15:04:45;;;;;;;;;;;22.10;76.20;;;;;;6130261;23;19920;-93
2023/06/23 15:07:11;;;;;;;;;;;22.10;76.40;;;;;;6156554;23;19905;-92
2023/06/23 15:09:37;;;;;;;;;;;22.10;76.30;;;;;;6151421;23;20306;-95
2023/06/23 15:12:12;;;;;;;;;;;22.10;76.40;;;;;;6151716;23;20023;-95
2023/06/23 15:14:38;;;;;;;;;;;22.10;76.30;;;;;;6155372;23;19951;-96
2023/06/23 15:17:04;;;;;;;;;;;22.10;76.40;;;;;;6149536;23;19979;-95
2023/06/23 15:19:30;;;;;;;;;;;22.10;76.00;;;;;;6150294;23;19990;-95
2023/06/23 15:21:55;;;;;;;;;;;22.10;76.10;;;;;;6150025;23;19915;-95
2023/06/23 15:24:21;;;;;;;;;;;22.10;76.40;;;;;;6149764;23;19905;-94
2023/06/23 15:26:46;;;;;;;;;;;22.10;75.90;;;;;;6151466;23;20341;-94
2023/06/23 15:29:12;;;;;;;;;;;22.10;76.00;;;;;;6153515;23;20366;-94
2023/06/23 15:31:38;;;;;;;;;;;22.10;76.40;;;;;;6153053;23;19912;-94
2023/06/23 15:34:04;;;;;;;;;;;22.10;76.40;;;;;;6153889;23;19904;-94
2023/06/23 15:36:29;;;;;;;;;;;22.10;75.80;;;;;;6155600;23;19915;-95
2023/06/23 15:38:55;;;;;;;;;;;22.10;76.10;;;;;;6153580;23;19906;-94
2023/06/23 15:41:21;;;;;;;;;;;22.10;75.30;;;;;;6155206;23;19905;-96
2023/06/23 15:43:46;;;;;;;;;;;22.10;75.20;;;;;;6153181;23;19999;-95
2023/06/23 15:46:12;;;;;;;;;;;22.10;75.00;;;;;;6153579;23;20230;-94
2023/06/23 15:48:38;;;;;;;;;;;22.10;74.90;;;;;;6155042;23;19912;-93
2023/06/23 15:51:17;;;;;;;;;;;22.10;74.60;;;;;;6156966;23;19919;-96
2023/06/23 15:53:44;;;;;;;;;;;22.10;75.00;;;;;;6154809;23;19908;-96
2023/06/23 15:56:10;;;;;;;;;;;22.10;74.40;;;;;;6155408;23;19904;-93
2023/06/23 15:58:36;;;;;;;;;;;22.10;74.30;;;;;;6158467;23;19947;-95
2023/06/23 16:01:02;;;;;;;;;;;22.10;74.60;;;;;;6158753;23;19905;-95
2023/06/23 16:03:28;;;;;;;;;;;22.00;73.40;;;;;;6160530;23;19932;-96
2023/06/23 16:05:56;;;;;;;;;;;22.10;73.40;;;;;;6158095;23;19905;-96
2023/06/23 16:08:22;;;;;;;;;;;22.00;72.50;;;;;;6152739;23;19913;-95
2023/06/23 16:10:51;;;;;;;;;;;22.00;73.90;;;;;;6157758;23;19913;-93
2023/06/23 16:13:17;;;;;;;;;;;22.10;73.10;;;;;;6154556;23;19912;-95
2023/06/23 16:15:43;;;;;;;;;;;22.00;73.40;;;;;;6155699;23;19967;-95
2023/06/23 16:18:11;;;;;;;;;;;22.00;73.10;;;;;;6157033;23;19936;-95
2023/06/23 16:20:38;;;;;;;;;;;22.00;73.10;;;;;;6154288;23;19916;-95
2023/06/23 16:23:05;;;;;;;;;;;22.00;73.20;;;;;;6151671;23;19908;-95
2023/06/23 16:25:43;;;;;;;;;;;22.00;73.30;;;;;;6159628;23;20293;-95
2023/06/23 16:28:09;;;;;;;;;;;22.00;73.10;;;;;;6160168;23;19908;-95
2023/06/23 16:30:40;;;;;;;;;;;22.00;72.10;;;;;;6159095;23;20187;-94
2023/06/23 16:33:09;;;;;;;;;;;22.30;73.10;;;;;;6163194;23;19912;-95
2023/06/23 16:35:42;;;;;;;;;;;22.00;72.50;;;;;;6156448;23;19905;-96
2023/06/23 16:38:10;;;;;;;;;;;22.00;72.60;;;;;;6168217;23;19943;-94
2023/06/23 16:40:49;;;;;;;;;;;22.00;72.10;;;;;;6163121;23;20055;-96
2023/06/23 16:43:30;;;;;;;;;;;22.00;72.70;;;;;;6162460;23;19928;-96
2023/06/23 16:46:07;;;;;;;;;;;22.00;72.80;;;;;;6166243;23;20365;-95
2023/06/23 16:48:48;;;;;;;;;;;22.00;71.90;;;;;;6163166;23;19916;-95
2023/06/23 16:51:26;;;;;;;;;;;22.00;71.60;;;;;;6138356;23;19968;-95
2023/06/23 16:53:58;;;;;;;;;;;21.90;71.40;;;;;;6156172;23;20428;-96
2023/06/23 16:56:25;;;;;;;;;;;22.00;71.00;;;;;;6142154;23;19909;-93
2023/06/23 16:58:59;;;;;;;;;;;22.00;71.50;;;;;;6166771;23;19916;-95
2023/06/23 17:01:57;;;;;;;;;;;22.00;71.10;;;;;;6165802;23;19923;-95
2023/06/23 17:04:34;;;;;;;;;;;22.00;71.20;;;;;;6168078;23;19923;-96
2023/06/23 17:07:18;;;;;;;;;;;22.00;71.30;;;;;;6171641;23;19957;-96
2023/06/23 17:09:51;;;;;;;;;;;22.00;71.60;;;;;;6167929;23;19904;-96
2023/06/23 17:12:35;;;;;;;;;;;22.00;70.20;;;;;;6168659;23;19908;-96
2023/06/23 17:15:08;;;;;;;;;;;22.00;70.20;;;;;;6172812;23;19913;-96
2023/06/23 17:18:04;;;;;;;;;;;22.00;69.10;;;;;;6173328;23;19962;-95
2023/06/23 17:20:54;;;;;;;;;;;21.90;68.70;;;;;;6143074;23;19963;-96
2023/06/23 17:23:58;;;;;;;;;;;21.90;68.60;;;;;;6171843;23;19940;-94
2023/06/23 17:26:53;;;;;;;;;;;21.90;68.50;;;;;;6169927;23;19908;-96
2023/06/23 17:29:22;;;;;;;;;;;21.80;67.80;;;;;;6124963;23;19904;-96
2023/06/23 17:34:27;;;;;;;;;;;21.80;68.70;;;;;;6129214;23;19927;-95
2023/06/23 17:36:57;;;;;;;;;;;21.80;68.40;;;;;;6079072;23;19949;-96
2023/06/23 17:39:48;;;;;;;;;;;21.80;68.50;;;;;;6073935;23;19992;-94
2023/06/23 17:42:38;;;;;;;;;;;21.80;69.20;;;;;;6063181;23;19912;-96
2023/06/23 17:45:17;;;;;;;;;;;21.80;68.30;;;;;;6090936;23;19913;-96
2023/06/23 17:55:00;;;;;;;;;;;21.80;69.10;;;;;;6101060;23;19910;-96
2023/06/23 17:57:19;;;;;;;;;;;21.80;69.60;;;;;;6100862;23;19912;-96
2023/06/23 18:02:59;;;;;;;;;;;21.80;69.00;;;;;;6088521;23;19911;-96
2023/06/23 18:05:58;;;;;;;;;;;21.80;68.70;;;;;;6062642;23;19936;-95
2023/06/23 18:17:49;;;;;;;;;;;21.80;68.70;;;;;;5940850;24;19918;-96
2023/06/23 18:26:57;;;;;;;;;;;21.70;69.00;;;;;;5915673;24;20395;-96
2023/06/23 18:41:42;;;;;;;;;;;21.60;69.00;;;;;;5866759;24;19919;-96
2023/06/23 18:44:24;;;;;;;;;;;21.70;68.60;;;;;;5787722;24;19904;-96
2023/06/23 18:47:14;;;;;;;;;;;21.60;68.80;;;;;;5762111;24;19961;-96
2023/06/23 18:59:42;;;;;;;;;;;;;;;;;;;;;
2023/06/23 19:02:09;;;;;;;;;;;21.60;69.30;;;;;;6107834;23;19929;-91
2023/06/23 19:04:35;;;;;;;;;;;21.60;69.20;;;;;;6069519;23;19909;-84
2023/06/23 19:07:01;;;;;;;;;;;21.60;69.60;;;;;;6069073;23;19976;-87
2023/06/23 19:44:48;;;;;;;;;;;;;;;;;;;;;
2023/06/23 19:47:44;;;;;;;;;;;21.80;74.90;;;;;;5849220;24;19916;-93
